Skip Navigation LinksHome page > Weather > Current weather Skip Navigation Links

Current Weather

Eureka, Nunavut

For information only: do not use for flight planning or navigation.
Latest weather
Observation time Friday, May 27, 2016 10:00 PM CDT
Local time Friday, May 27, 2016 10:58 PM CDT
Flight conditions Visual Meteorological Conditions
Winds
Wind direction variable
Wind speed 2 mph
Visibility 15 mi.
Sky condition
Ceiling unlimited
Cloud layer few clouds 7,000 ft.
Cloud layer few clouds 13,000 ft.
Cloud layer few clouds 21,000 ft.
Temperature 25°F
Dewpoint 16°F
Altimeter 30.02 in.Hg
Derived measurements
Relative humidity 68%
Wind chill 25°F
Density altitude -2373 ft.
Sea-level pressure 30.03 in.Hg
Remarks
Last observation of the day.
METAR CWEU 280300Z VRB02KT 15SM FEW070 FEW130 FEW210 M04/M09 A3002 RMK AC1AC1CI1 AC TR AC TR LAST OBS/NEXT 28/0600 UTC SLP169

Settings

Location code

InnerDrive.Weather 4.0.5722.1 Release CLR 4.0.30319.34209
Copyright ©2015 Inner Drive Technology. All rights reserved. Portions Copyright ©1986-2015 David Braverman.

Find weather

Site navigation


Skip Navigation Links

Place info

Page info

PayPal - The safer, easier way to pay online!

Return home.

Copyright ©2016 Inner Drive Technology. Purveyors of fine, hand-crafted computer software. Page printed 2016-05-28T03:58:20 UTC.